Terminal Aerodrome Forecast
Issued by NWS Cleveland, OH

Home | Current Version | Previous Version | Graphics & Text | Print | Product List | Glossary On
Versions: 1 2 3 4 5 6 7 8 9 10 11 12 13 14
005
FTUS41 KCLE 231730
TAFCAK
TAF
KCAK 231730Z 2318/2418 31007KT P6SM SCT150
     FM240000 01007KT P6SM SCT025 BKN050
     FM240400 01007KT 6SM BR BKN009
     FM241400 05009KT P6SM BKN020=

USA.gov is the U.S. government's official web portal to all federal, state and local government web resources and services.